createdAt,value
2023-05-23T00:01:43.534Z,96.00
2023-05-23T00:04:17.211Z,95.80
2023-05-23T00:06:47.310Z,95.90
2023-05-23T00:09:15.226Z,96.00
2023-05-23T00:11:45.699Z,96.20
2023-05-23T00:14:14.324Z,96.40
2023-05-23T00:16:43.079Z,96.90
2023-05-23T00:19:15.334Z,97.90
2023-05-23T00:21:48.783Z,98.60
2023-05-23T00:24:18.787Z,99.10
2023-05-23T00:26:46.566Z,99.30
2023-05-23T00:29:18.258Z,99.40
2023-05-23T00:31:46.925Z,99.90
2023-05-23T00:34:15.034Z,99.90
2023-05-23T00:36:43.813Z,99.90
2023-05-23T00:39:19.965Z,99.90
2023-05-23T00:41:51.811Z,99.90
2023-05-23T00:44:20.746Z,99.90
2023-05-23T00:46:52.851Z,99.90
2023-05-23T00:49:20.671Z,99.90
2023-05-23T00:51:49.862Z,99.90
2023-05-23T00:54:23.877Z,99.90
2023-05-23T00:56:51.490Z,99.90
2023-05-23T00:59:18.593Z,99.90
2023-05-23T01:01:47.499Z,99.90
2023-05-23T01:04:16.896Z,99.90
2023-05-23T01:06:46.749Z,99.90
2023-05-23T01:09:15.996Z,99.90
2023-05-23T01:12:15.854Z,99.90
2023-05-23T01:14:49.224Z,99.90
2023-05-23T01:17:27.341Z,99.90
2023-05-23T01:20:09.302Z,99.90
2023-05-23T01:22:55.428Z,99.90
2023-05-23T01:26:00.012Z,99.90
2023-05-23T01:28:41.080Z,99.90
2023-05-23T01:31:10.539Z,99.90
2023-05-23T01:33:40.276Z,99.90
2023-05-23T01:36:09.430Z,99.90
2023-05-23T01:38:36.387Z,99.90
2023-05-23T01:41:03.374Z,99.90
2023-05-23T01:43:30.760Z,99.90
2023-05-23T01:45:58.945Z,99.90
2023-05-23T01:48:28.774Z,99.90
2023-05-23T01:50:56.840Z,99.90
2023-05-23T01:53:25.386Z,99.90
2023-05-23T01:55:52.987Z,99.90
2023-05-23T01:58:20.169Z,99.90
2023-05-23T02:00:47.183Z,99.90
2023-05-23T02:03:14.563Z,99.90
2023-05-23T02:05:41.917Z,99.90
2023-05-23T02:08:09.077Z,99.90
2023-05-23T02:10:36.151Z,99.90
2023-05-23T02:13:03.167Z,99.90
2023-05-23T02:15:30.205Z,99.90
2023-05-23T02:17:57.213Z,99.90
2023-05-23T02:20:24.260Z,99.90
2023-05-23T02:22:51.229Z,99.90
2023-05-23T02:25:18.282Z,99.90
2023-05-23T02:27:45.286Z,99.90
2023-05-23T02:30:12.688Z,99.90
2023-05-23T02:32:39.834Z,99.90
2023-05-23T02:35:07.072Z,99.90
2023-05-23T02:37:34.050Z,99.90
2023-05-23T02:40:01.530Z,99.90
2023-05-23T02:42:28.501Z,99.90
2023-05-23T02:44:55.467Z,99.90
2023-05-23T02:47:22.603Z,99.90
2023-05-23T02:49:49.591Z,99.90
2023-05-23T02:52:17.157Z,99.90
2023-05-23T02:54:44.324Z,99.90
2023-05-23T02:57:11.259Z,99.90
2023-05-23T02:59:38.222Z,99.90
2023-05-23T03:02:05.396Z,99.90
2023-05-23T03:04:32.455Z,99.90
2023-05-23T03:06:59.863Z,99.90
2023-05-23T03:09:27.129Z,99.90
2023-05-23T03:11:54.166Z,99.90
2023-05-23T03:14:21.194Z,99.90
2023-05-23T03:16:48.257Z,99.90
2023-05-23T03:19:15.344Z,99.90
2023-05-23T03:21:42.349Z,91.40
2023-05-23T03:24:09.546Z,48.50
2023-05-23T03:26:36.661Z,30.30
2023-05-23T03:29:03.798Z,11.20
2023-05-23T03:31:30.810Z,13.40
2023-05-23T03:33:57.836Z,10.40
2023-05-23T03:36:28.535Z,1.00
2023-05-23T03:38:55.683Z,1.00
2023-05-23T03:41:22.772Z,1.00
2023-05-23T03:43:49.977Z,1.00
2023-05-23T03:46:17.097Z,1.00
2023-05-23T03:48:44.187Z,1.00
2023-05-23T03:51:13.556Z,1.00
2023-05-23T03:53:40.599Z,99.90
2023-05-23T03:56:07.630Z,99.90
2023-05-23T03:58:34.610Z,1.00
2023-05-23T04:01:02.281Z,1.00
2023-05-23T04:03:32.850Z,99.90
2023-05-23T04:06:01.409Z,99.90
2023-05-23T04:08:29.533Z,99.90
2023-05-23T04:10:56.524Z,99.90
2023-05-23T04:13:25.090Z,99.90
2023-05-23T04:15:52.747Z,99.90
2023-05-23T04:18:20.135Z,99.90
2023-05-23T04:20:47.369Z,99.90
2023-05-23T04:23:14.492Z,1.00
2023-05-23T04:25:41.643Z,99.90
2023-05-23T04:28:10.609Z,63.90
2023-05-23T04:30:37.776Z,1.00
2023-05-23T04:33:04.828Z,1.00
2023-05-23T04:35:34.395Z,1.00
2023-05-23T04:38:02.035Z,2.50
2023-05-23T04:40:29.655Z,1.00
2023-05-23T04:42:57.354Z,1.00
2023-05-23T04:45:24.384Z,99.90
2023-05-23T04:47:54.925Z,1.00
2023-05-23T04:50:24.814Z,1.00
2023-05-23T04:52:51.883Z,1.00
2023-05-23T04:55:20.159Z,1.00
2023-05-23T04:57:47.199Z,1.00
2023-05-23T05:00:14.906Z,62.80
2023-05-23T05:02:42.256Z,1.00
2023-05-23T05:05:09.747Z,99.90
2023-05-23T05:07:37.098Z,99.90
2023-05-23T05:10:04.265Z,1.00
2023-05-23T05:12:31.261Z,1.00
2023-05-23T05:14:58.222Z,1.00
2023-05-23T05:17:25.935Z,99.90
2023-05-23T05:19:53.179Z,99.90
2023-05-23T05:22:20.091Z,99.90
2023-05-23T05:24:47.074Z,99.90
2023-05-23T05:27:14.094Z,99.90
2023-05-23T05:29:41.035Z,99.90
2023-05-23T05:32:09.240Z,98.30
2023-05-23T05:34:38.071Z,29.70
2023-05-23T05:37:05.344Z,16.40
2023-05-23T05:39:32.284Z,1.00
2023-05-23T05:42:01.340Z,1.00
2023-05-23T05:44:28.337Z,21.00
2023-05-23T05:46:55.812Z,1.00
2023-05-23T05:49:22.786Z,1.00
2023-05-23T05:51:49.816Z,1.00
2023-05-23T05:54:19.113Z,1.00
2023-05-23T05:56:48.229Z,1.00
2023-05-23T05:59:15.397Z,99.90
2023-05-23T06:01:42.371Z,99.90
2023-05-23T06:04:09.420Z,99.90
2023-05-23T06:06:36.733Z,99.90
2023-05-23T06:09:03.794Z,99.90
2023-05-23T06:11:31.155Z,99.90
2023-05-23T06:13:58.988Z,99.90
2023-05-23T06:16:26.106Z,99.90
2023-05-23T06:18:53.095Z,99.90
2023-05-23T06:21:20.120Z,99.90
2023-05-23T06:23:47.009Z,99.90
2023-05-23T06:26:13.982Z,99.90
2023-05-23T06:28:41.152Z,99.90
2023-05-23T06:31:11.212Z,99.90
2023-05-23T06:33:38.480Z,99.90
2023-05-23T06:36:05.557Z,99.90
2023-05-23T06:38:35.607Z,92.90
2023-05-23T06:41:03.990Z,99.90
2023-05-23T06:43:30.941Z,1.00
2023-05-23T06:45:57.947Z,99.90
2023-05-23T06:48:24.889Z,99.90
2023-05-23T06:50:51.901Z,99.90
2023-05-23T06:53:19.408Z,99.90
2023-05-23T06:55:46.425Z,99.90
2023-05-23T06:58:13.536Z,99.90
2023-05-23T07:00:40.790Z,99.90
2023-05-23T07:03:08.474Z,99.90
2023-05-23T07:05:40.073Z,99.90
2023-05-23T07:08:08.038Z,99.90
2023-05-23T07:10:35.499Z,99.90
2023-05-23T07:13:02.517Z,99.90
2023-05-23T07:15:29.511Z,99.90
2023-05-23T07:17:56.501Z,99.90
2023-05-23T07:20:23.545Z,99.90
2023-05-23T07:22:51.751Z,82.40
2023-05-23T07:25:19.004Z,83.20
2023-05-23T07:27:46.057Z,51.90
2023-05-23T07:30:13.114Z,65.20
2023-05-23T07:32:40.107Z,22.40
2023-05-23T07:35:07.504Z,12.30
2023-05-23T07:37:34.476Z,1.00
2023-05-23T07:40:01.636Z,1.00
2023-05-23T07:42:28.594Z,1.00
2023-05-23T07:44:55.556Z,1.00
2023-05-23T07:47:22.549Z,1.00
2023-05-23T07:49:49.538Z,1.00
2023-05-23T07:52:16.444Z,1.00
2023-05-23T07:54:43.853Z,99.90
2023-05-23T07:57:10.978Z,99.90
2023-05-23T07:59:39.029Z,99.90
2023-05-23T08:02:06.146Z,99.90
2023-05-23T08:04:34.098Z,99.90
2023-05-23T08:07:05.598Z,99.90
2023-05-23T08:09:33.025Z,99.90
2023-05-23T08:12:00.253Z,59.40
2023-05-23T08:14:38.629Z,1.00
2023-05-23T08:17:15.272Z,1.00
2023-05-23T08:19:42.337Z,1.00
2023-05-23T08:22:09.560Z,1.00
2023-05-23T08:24:36.479Z,1.00
2023-05-23T08:27:03.550Z,1.00
2023-05-23T08:29:30.537Z,34.90
2023-05-23T08:31:57.593Z,60.20
2023-05-23T08:34:24.647Z,62.50
2023-05-23T08:36:52.695Z,63.40
2023-05-23T08:39:19.660Z,60.20
2023-05-23T08:41:47.365Z,60.20
2023-05-23T08:44:14.506Z,62.30
2023-05-23T08:46:54.023Z,63.30
2023-05-23T08:49:23.209Z,61.60
2023-05-23T08:51:54.513Z,60.60
2023-05-23T08:54:22.410Z,61.20
2023-05-23T08:56:49.499Z,62.50
2023-05-23T08:59:17.203Z,61.00
2023-05-23T09:01:46.345Z,61.00
2023-05-23T09:04:13.418Z,58.70
2023-05-23T09:06:40.695Z,58.00
2023-05-23T09:09:07.998Z,61.10
2023-05-23T09:11:36.255Z,60.30
2023-05-23T09:14:05.361Z,59.20
2023-05-23T09:16:34.726Z,61.00
2023-05-23T09:19:11.189Z,61.60
2023-05-23T09:21:41.731Z,62.10
2023-05-23T09:24:08.812Z,61.00
2023-05-23T09:26:36.418Z,61.20
2023-05-23T09:29:07.602Z,60.60
2023-05-23T09:31:34.870Z,60.30
2023-05-23T09:34:02.057Z,62.30
2023-05-23T09:36:35.345Z,62.70
2023-05-23T09:39:06.876Z,59.30
2023-05-23T09:41:35.467Z,58.80
2023-05-23T09:44:08.609Z,62.20
2023-05-23T09:46:37.787Z,62.50
2023-05-23T09:49:17.175Z,59.30
2023-05-23T09:51:44.209Z,58.80
2023-05-23T09:54:11.245Z,58.90
2023-05-23T09:56:43.768Z,59.20
2023-05-23T09:59:13.986Z,57.60
2023-05-23T10:01:44.181Z,57.10
2023-05-23T10:04:12.267Z,56.80
2023-05-23T10:06:44.975Z,57.00
2023-05-23T10:09:19.186Z,55.40
2023-05-23T10:11:49.090Z,58.30
2023-05-23T10:14:17.411Z,59.00
2023-05-23T10:16:55.418Z,57.00
2023-05-23T10:19:35.772Z,57.40
2023-05-23T10:22:07.504Z,57.70
2023-05-23T10:24:35.842Z,57.40
2023-05-23T10:27:03.636Z,57.30
2023-05-23T10:29:31.626Z,56.90
2023-05-23T10:32:00.202Z,56.60
2023-05-23T10:34:42.067Z,57.10
2023-05-23T10:37:14.796Z,55.70
2023-05-23T10:40:05.131Z,55.80
2023-05-23T10:43:01.488Z,56.10
2023-05-23T10:45:28.584Z,58.00
2023-05-23T10:47:55.685Z,56.40
2023-05-23T10:50:33.395Z,54.00
2023-05-23T10:53:05.825Z,53.70
2023-05-23T10:55:37.433Z,55.80
2023-05-23T10:58:23.586Z,55.80
2023-05-23T11:01:00.199Z,56.90
2023-05-23T11:03:38.526Z,57.00
2023-05-23T11:06:06.442Z,55.70
2023-05-23T11:11:12.509Z,55.80
2023-05-23T11:14:00.247Z,55.80
2023-05-23T11:16:29.571Z,56.70
2023-05-23T11:19:18.478Z,56.60
2023-05-23T11:22:08.878Z,55.60
2023-05-23T11:24:53.706Z,56.00
2023-05-23T11:27:38.068Z,57.80
2023-05-23T11:30:25.581Z,58.30
2023-05-23T11:32:54.249Z,57.30
2023-05-23T11:35:21.829Z,57.60
2023-05-23T11:37:49.220Z,57.60
2023-05-23T11:40:35.380Z,55.50
2023-05-23T11:43:10.391Z,56.50
2023-05-23T11:45:38.919Z,55.40
2023-05-23T11:48:10.108Z,57.90
2023-05-23T11:50:46.076Z,58.10
2023-05-23T11:53:14.164Z,58.30
2023-05-23T11:55:48.471Z,58.70
2023-05-23T11:58:15.562Z,59.30
2023-05-23T12:00:46.245Z,57.70
2023-05-23T12:03:13.454Z,57.00
2023-05-23T12:05:44.159Z,57.80
2023-05-23T12:08:14.429Z,58.60
2023-05-23T12:11:01.359Z,58.30
2023-05-23T12:13:31.694Z,58.00
2023-05-23T12:16:01.526Z,58.40
2023-05-23T12:18:30.191Z,57.20
2023-05-23T12:21:01.426Z,57.30
2023-05-23T12:23:29.702Z,57.10
2023-05-23T12:25:58.287Z,54.80
2023-05-23T12:28:41.145Z,56.70
2023-05-23T12:31:17.958Z,56.60
2023-05-23T12:33:46.326Z,56.20
2023-05-23T12:36:14.270Z,54.80
2023-05-23T12:38:45.687Z,54.30
2023-05-23T12:41:22.310Z,53.90
2023-05-23T12:43:54.363Z,53.00
2023-05-23T12:46:22.903Z,52.60
2023-05-23T12:48:50.117Z,53.40
2023-05-23T12:51:17.797Z,52.80
2023-05-23T12:53:45.225Z,53.00
2023-05-23T12:56:12.390Z,52.20
2023-05-23T12:58:39.570Z,53.10
2023-05-23T13:01:06.717Z,52.70
2023-05-23T13:03:33.844Z,51.80
2023-05-23T13:06:00.918Z,51.00
2023-05-23T13:08:27.967Z,51.20
2023-05-23T13:10:55.014Z,52.40
2023-05-23T13:13:22.713Z,53.00
2023-05-23T13:15:51.190Z,52.30
2023-05-23T13:18:18.932Z,53.00
2023-05-23T13:20:46.725Z,52.70
2023-05-23T13:23:14.007Z,53.20
2023-05-23T13:25:41.345Z,53.50
2023-05-23T13:28:08.899Z,54.60
2023-05-23T13:30:35.972Z,52.80
2023-05-23T13:33:03.731Z,52.90
2023-05-23T13:35:30.962Z,53.70
2023-05-23T13:37:57.948Z,53.30
2023-05-23T13:40:25.068Z,51.60
2023-05-23T13:42:52.777Z,52.30
2023-05-23T13:45:20.347Z,52.50
2023-05-23T13:47:47.564Z,52.60
2023-05-23T13:50:14.691Z,53.50
2023-05-23T13:52:45.648Z,51.80
2023-05-23T13:55:14.489Z,52.40
2023-05-23T13:57:41.501Z,50.50
2023-05-23T14:00:09.208Z,50.30
2023-05-23T14:02:36.414Z,49.10
2023-05-23T14:05:04.225Z,50.80
2023-05-23T14:07:31.749Z,49.20
2023-05-23T14:09:59.886Z,47.70
2023-05-23T14:12:27.139Z,51.20
2023-05-23T14:14:54.102Z,51.80
2023-05-23T14:17:21.246Z,53.20
2023-05-23T14:19:48.465Z,55.00
2023-05-23T14:22:15.653Z,56.00
2023-05-23T14:24:42.714Z,56.80
2023-05-23T14:27:11.273Z,56.50
2023-05-23T14:29:39.112Z,56.20
2023-05-23T14:32:06.626Z,56.30
2023-05-23T14:34:33.982Z,56.60
2023-05-23T14:37:01.377Z,55.50
2023-05-23T14:39:29.263Z,56.30
2023-05-23T14:41:56.563Z,57.20
2023-05-23T14:44:23.753Z,58.80
2023-05-23T14:46:50.886Z,56.20
2023-05-23T14:49:18.111Z,56.90
2023-05-23T14:51:50.229Z,56.80
2023-05-23T14:54:18.573Z,57.20
2023-05-23T14:56:45.769Z,57.20
2023-05-23T14:59:12.707Z,58.40
2023-05-23T15:01:40.591Z,59.70
2023-05-23T15:04:09.888Z,58.90
2023-05-23T15:06:38.714Z,57.90
2023-05-23T15:09:06.185Z,57.30
2023-05-23T15:11:35.177Z,56.70
2023-05-23T15:14:02.451Z,57.40
2023-05-23T15:16:33.195Z,57.90
2023-05-23T15:19:00.723Z,57.40
2023-05-23T15:21:28.338Z,58.60
2023-05-23T15:23:55.892Z,58.50
2023-05-23T15:26:22.839Z,58.80
2023-05-23T15:28:49.884Z,58.50
2023-05-23T15:31:16.865Z,59.10
2023-05-23T15:33:44.216Z,58.80
2023-05-23T15:36:13.349Z,58.70
2023-05-23T15:38:40.554Z,58.70
2023-05-23T15:41:07.736Z,58.90
2023-05-23T15:43:37.989Z,58.80
2023-05-23T15:46:05.570Z,57.70
2023-05-23T15:48:32.776Z,57.50
2023-05-23T15:50:59.806Z,58.10
2023-05-23T15:53:26.798Z,59.50
2023-05-23T15:55:53.883Z,59.90
2023-05-23T15:58:21.179Z,59.20
2023-05-23T16:00:48.173Z,59.80
2023-05-23T16:03:15.187Z,60.10
2023-05-23T16:05:42.529Z,59.90
2023-05-23T16:08:09.716Z,60.20
2023-05-23T16:10:36.628Z,59.80
2023-05-23T16:13:04.193Z,58.80
2023-05-23T16:15:31.155Z,60.30
2023-05-23T16:17:58.356Z,60.00
2023-05-23T16:20:25.298Z,61.10
2023-05-23T16:22:52.416Z,60.50
2023-05-23T16:25:19.395Z,59.80
2023-05-23T16:27:46.416Z,61.60
2023-05-23T16:30:13.489Z,60.90
2023-05-23T16:32:40.571Z,61.00
2023-05-23T16:35:08.050Z,60.70
2023-05-23T16:37:35.227Z,60.80
2023-05-23T16:40:02.485Z,59.80
2023-05-23T16:42:29.515Z,60.20
2023-05-23T16:44:56.857Z,60.10
2023-05-23T16:47:24.025Z,59.10
2023-05-23T16:49:51.056Z,60.90
2023-05-23T16:52:18.515Z,60.30
2023-05-23T16:54:45.574Z,60.50
2023-05-23T16:57:12.612Z,59.80
2023-05-23T16:59:40.906Z,59.40
2023-05-23T17:02:11.336Z,60.90
2023-05-23T17:04:38.387Z,60.70
2023-05-23T17:07:05.993Z,59.80
2023-05-23T17:09:32.929Z,62.30
2023-05-23T17:11:59.936Z,60.60
2023-05-23T17:14:26.930Z,61.30
2023-05-23T17:16:53.902Z,61.10
2023-05-23T17:19:21.009Z,63.30
2023-05-23T17:21:49.201Z,62.80
2023-05-23T17:24:16.211Z,63.30
2023-05-23T17:26:43.171Z,64.00
2023-05-23T17:29:10.175Z,65.00
2023-05-23T17:31:37.213Z,65.40
2023-05-23T17:34:04.266Z,65.40
2023-05-23T17:36:31.902Z,65.70
2023-05-23T17:38:58.855Z,67.10
2023-05-23T17:41:26.927Z,67.70
2023-05-23T17:43:53.907Z,67.40
2023-05-23T17:46:20.921Z,68.50
2023-05-23T17:48:48.367Z,68.70
2023-05-23T17:51:15.935Z,69.20
2023-05-23T17:53:43.467Z,70.00
2023-05-23T17:56:11.120Z,69.70
2023-05-23T17:58:39.710Z,70.10
2023-05-23T18:01:08.769Z,70.50
2023-05-23T18:03:35.810Z,70.90
2023-05-23T18:06:03.375Z,71.20
2023-05-23T18:08:30.298Z,71.40
2023-05-23T18:10:57.431Z,71.40
2023-05-23T18:13:24.361Z,71.60
2023-05-23T18:15:51.659Z,71.60
2023-05-23T18:18:18.713Z,74.40
2023-05-23T18:20:45.752Z,73.10
2023-05-23T18:23:12.768Z,74.90
2023-05-23T18:25:39.823Z,75.20
2023-05-23T18:28:06.926Z,75.80
2023-05-23T18:30:33.919Z,76.60
2023-05-23T18:33:01.106Z,78.00
2023-05-23T18:35:28.382Z,78.40
2023-05-23T18:37:55.523Z,82.00
2023-05-23T18:40:24.344Z,86.80
2023-05-23T18:42:52.252Z,87.90
2023-05-23T18:45:19.576Z,90.00
2023-05-23T18:47:46.872Z,92.50
2023-05-23T18:50:14.595Z,95.50
2023-05-23T18:52:43.455Z,97.10
2023-05-23T18:55:11.383Z,98.00
2023-05-23T18:57:38.407Z,99.40
2023-05-23T19:00:06.081Z,99.60
2023-05-23T19:02:33.147Z,99.90
2023-05-23T19:05:00.336Z,99.90
2023-05-23T19:07:27.470Z,99.90
2023-05-23T19:09:54.493Z,99.90
2023-05-23T19:12:21.491Z,99.90
2023-05-23T19:14:48.416Z,99.90
2023-05-23T19:17:15.397Z,99.90
2023-05-23T19:19:42.547Z,99.90
2023-05-23T19:22:09.783Z,99.90
2023-05-23T19:24:37.591Z,99.90
2023-05-23T19:27:05.006Z,99.90
2023-05-23T19:29:31.959Z,99.60
2023-05-23T19:31:59.173Z,99.90
2023-05-23T19:34:26.535Z,99.90
2023-05-23T19:36:53.502Z,99.90
2023-05-23T19:39:21.598Z,99.90
2023-05-23T19:41:48.567Z,99.90
2023-05-23T19:44:15.595Z,99.90
2023-05-23T19:46:42.526Z,99.90
2023-05-23T19:49:09.549Z,99.90
2023-05-23T19:51:36.988Z,99.90
2023-05-23T19:54:04.211Z,1.00
2023-05-23T19:56:31.282Z,1.00
2023-05-23T19:58:58.524Z,1.00
2023-05-23T20:01:25.490Z,1.00
2023-05-23T20:03:52.584Z,1.00
2023-05-23T20:06:20.670Z,1.00
2023-05-23T20:08:47.787Z,37.20
2023-05-23T20:11:14.880Z,99.90
2023-05-23T20:13:41.897Z,99.90
2023-05-23T20:16:09.116Z,99.90
2023-05-23T20:18:36.361Z,99.90
2023-05-23T20:21:05.190Z,99.90
2023-05-23T20:23:32.567Z,99.90
2023-05-23T20:26:00.397Z,99.90
2023-05-23T20:28:27.805Z,1.00
2023-05-23T20:30:54.746Z,1.00
2023-05-23T20:33:22.863Z,1.90
2023-05-23T20:35:49.850Z,33.40
2023-05-23T20:38:18.677Z,78.30
2023-05-23T20:40:46.432Z,99.90
2023-05-23T20:43:15.153Z,99.90
2023-05-23T20:45:42.509Z,99.90
2023-05-23T20:48:09.708Z,1.00
2023-05-23T20:50:38.023Z,26.50
2023-05-23T20:53:06.531Z,99.90
2023-05-23T20:55:35.455Z,1.00
2023-05-23T20:58:02.448Z,40.50
2023-05-23T21:00:29.450Z,99.90
2023-05-23T21:02:56.788Z,99.90
2023-05-23T21:05:24.045Z,1.00
2023-05-23T21:07:51.182Z,99.90
2023-05-23T21:10:18.293Z,89.60
2023-05-23T21:12:50.226Z,99.90
2023-05-23T21:15:18.137Z,99.90
2023-05-23T21:17:45.921Z,99.90
2023-05-23T21:20:13.913Z,1.00
2023-05-23T21:22:41.136Z,99.90
2023-05-23T21:25:08.377Z,99.90
2023-05-23T21:27:35.387Z,99.90
2023-05-23T21:30:02.898Z,99.90
2023-05-23T21:32:29.837Z,99.90
2023-05-23T21:34:57.051Z,99.90
2023-05-23T21:37:23.996Z,99.90
2023-05-23T21:39:52.607Z,99.90
2023-05-23T21:42:21.204Z,99.90
2023-05-23T21:44:48.293Z,99.90
2023-05-23T21:47:15.420Z,1.00
2023-05-23T21:49:42.522Z,1.00
2023-05-23T21:52:09.662Z,13.00
2023-05-23T21:54:36.615Z,99.90
2023-05-23T21:57:03.730Z,99.90
2023-05-23T21:59:30.765Z,99.90
2023-05-23T22:01:57.988Z,99.90
2023-05-23T22:04:24.968Z,99.90
2023-05-23T22:06:52.554Z,99.90
2023-05-23T22:09:19.636Z,99.90
2023-05-23T22:11:46.630Z,99.90
2023-05-23T22:14:13.631Z,99.90
2023-05-23T22:16:40.933Z,99.90
2023-05-23T22:19:10.121Z,99.90
2023-05-23T22:21:37.669Z,99.90
2023-05-23T22:24:05.169Z,99.90
2023-05-23T22:26:32.397Z,99.90
2023-05-23T22:28:59.486Z,99.90
2023-05-23T22:31:26.673Z,99.90
2023-05-23T22:33:53.666Z,99.90
2023-05-23T22:36:22.281Z,1.00
2023-05-23T22:38:49.285Z,1.00
2023-05-23T22:41:16.237Z,1.00
2023-05-23T22:43:43.360Z,1.00
2023-05-23T22:46:10.522Z,1.00
2023-05-23T22:48:38.043Z,1.00
2023-05-23T22:51:06.021Z,1.00
2023-05-23T22:53:33.063Z,1.00
2023-05-23T22:55:59.994Z,1.00
2023-05-23T22:58:27.101Z,1.00
2023-05-23T23:00:54.104Z,1.00
2023-05-23T23:03:21.444Z,1.00
2023-05-23T23:05:48.677Z,1.00
2023-05-23T23:08:16.274Z,1.00
2023-05-23T23:10:43.978Z,1.00
2023-05-23T23:13:13.700Z,1.00
2023-05-23T23:15:42.798Z,1.00
2023-05-23T23:18:10.286Z,1.00
2023-05-23T23:20:38.994Z,1.00
2023-05-23T23:23:06.203Z,1.00
2023-05-23T23:25:33.464Z,1.00
2023-05-23T23:28:01.041Z,1.00
2023-05-23T23:30:28.124Z,1.00
2023-05-23T23:32:55.280Z,1.00
2023-05-23T23:35:22.468Z,1.00
2023-05-23T23:37:49.635Z,1.00
2023-05-23T23:40:16.958Z,1.00
2023-05-23T23:42:43.933Z,1.00
2023-05-23T23:45:11.379Z,1.00
2023-05-23T23:47:38.455Z,1.00
2023-05-23T23:50:06.810Z,1.00
2023-05-23T23:52:33.933Z,1.00
2023-05-23T23:55:01.475Z,1.00
2023-05-23T23:57:28.389Z,1.00
2023-05-23T23:59:55.451Z,1.00
